sensor_id;sensor_type;location;lat;lon;timestamp;P1;durP1;ratioP1;P2;durP2;ratioP2
72882;SDS011;61017;37.812;-122.286;2023-04-30T00:00:50;3.00;;;1.20;;
72882;SDS011;61017;37.812;-122.286;2023-04-30T00:02:22;5.03;;;1.20;;
72882;SDS011;61017;37.812;-122.286;2023-04-30T00:03:53;2.03;;;1.00;;
72882;SDS011;61017;37.812;-122.286;2023-04-30T00:05:25;2.65;;;1.20;;
72882;SDS011;61017;37.812;-122.286;2023-04-30T00:06:56;3.75;;;1.20;;
72882;SDS011;61017;37.812;-122.286;2023-04-30T00:08:28;2.90;;;1.27;;
72882;SDS011;61017;37.812;-122.286;2023-04-30T00:10:00;4.05;;;1.20;;
72882;SDS011;61017;37.812;-122.286;2023-04-30T00:11:32;3.08;;;1.10;;
72882;SDS011;61017;37.812;-122.286;2023-04-30T00:13:03;3.15;;;1.02;;
72882;SDS011;61017;37.812;-122.286;2023-04-30T00:14:35;3.25;;;1.30;;
72882;SDS011;61017;37.812;-122.286;2023-04-30T00:16:06;2.90;;;1.00;;
72882;SDS011;61017;37.812;-122.286;2023-04-30T00:17:38;3.25;;;1.00;;
72882;SDS011;61017;37.812;-122.286;2023-04-30T00:19:10;2.58;;;0.95;;
72882;SDS011;61017;37.812;-122.286;2023-04-30T00:20:41;4.40;;;1.13;;
72882;SDS011;61017;37.812;-122.286;2023-04-30T00:22:13;4.13;;;0.90;;
72882;SDS011;61017;37.812;-122.286;2023-04-30T00:23:44;2.38;;;1.00;;
72882;SDS011;61017;37.812;-122.286;2023-04-30T00:25:16;2.33;;;1.00;;
72882;SDS011;61017;37.812;-122.286;2023-04-30T00:26:48;2.88;;;0.93;;
72882;SDS011;61017;37.812;-122.286;2023-04-30T00:28:19;4.07;;;1.08;;
72882;SDS011;61017;37.812;-122.286;2023-04-30T00:29:51;4.32;;;1.10;;
72882;SDS011;61017;37.812;-122.286;2023-04-30T00:31:22;6.22;;;1.30;;
72882;SDS011;61017;37.812;-122.286;2023-04-30T00:32:54;4.68;;;1.10;;
72882;SDS011;61017;37.812;-122.286;2023-04-30T00:34:25;6.50;;;1.33;;
72882;SDS011;61017;37.812;-122.286;2023-04-30T00:35:57;2.20;;;0.98;;
72882;SDS011;61017;37.812;-122.286;2023-04-30T00:37:29;4.63;;;1.02;;
72882;SDS011;61017;37.812;-122.286;2023-04-30T00:39:00;2.63;;;1.00;;
72882;SDS011;61017;37.812;-122.286;2023-04-30T00:40:36;1.88;;;0.90;;
72882;SDS011;61017;37.812;-122.286;2023-04-30T00:42:09;3.00;;;1.20;;
72882;SDS011;61017;37.812;-122.286;2023-04-30T00:43:41;2.53;;;1.00;;
72882;SDS011;61017;37.812;-122.286;2023-04-30T00:45:12;3.88;;;0.90;;
72882;SDS011;61017;37.812;-122.286;2023-04-30T00:46:44;2.13;;;1.00;;
72882;SDS011;61017;37.812;-122.286;2023-04-30T00:48:16;2.47;;;1.00;;
72882;SDS011;61017;37.812;-122.286;2023-04-30T00:49:47;2.03;;;0.95;;
72882;SDS011;61017;37.812;-122.286;2023-04-30T00:51:19;3.63;;;1.10;;
72882;SDS011;61017;37.812;-122.286;2023-04-30T00:52:51;2.03;;;1.00;;
72882;SDS011;61017;37.812;-122.286;2023-04-30T00:54:22;5.38;;;1.05;;
72882;SDS011;61017;37.812;-122.286;2023-04-30T00:55:55;2.33;;;0.98;;
72882;SDS011;61017;37.812;-122.286;2023-04-30T00:57:27;5.70;;;1.05;;
72882;SDS011;61017;37.812;-122.286;2023-04-30T00:58:58;2.83;;;1.10;;
72882;SDS011;61017;37.812;-122.286;2023-04-30T01:00:30;3.05;;;1.20;;
72882;SDS011;61017;37.812;-122.286;2023-04-30T01:02:03;1.95;;;0.85;;
72882;SDS011;61017;37.812;-122.286;2023-04-30T01:03:34;3.30;;;1.00;;
72882;SDS011;61017;37.812;-122.286;2023-04-30T01:05:06;1.80;;;1.00;;
72882;SDS011;61017;37.812;-122.286;2023-04-30T01:06:38;2.13;;;0.90;;
72882;SDS011;61017;37.812;-122.286;2023-04-30T01:08:10;4.13;;;1.20;;
72882;SDS011;61017;37.812;-122.286;2023-04-30T01:09:41;2.53;;;1.00;;
72882;SDS011;61017;37.812;-122.286;2023-04-30T01:13:16;4.45;;;1.05;;
72882;SDS011;61017;37.812;-122.286;2023-04-30T01:15:00;2.45;;;1.00;;
72882;SDS011;61017;37.812;-122.286;2023-04-30T01:16:47;3.83;;;1.13;;
72882;SDS011;61017;37.812;-122.286;2023-04-30T01:18:38;3.38;;;1.00;;
72882;SDS011;61017;37.812;-122.286;2023-04-30T01:20:17;3.20;;;1.00;;
72882;SDS011;61017;37.812;-122.286;2023-04-30T01:21:50;3.20;;;1.15;;
72882;SDS011;61017;37.812;-122.286;2023-04-30T01:29:04;5.18;;;1.42;;
72882;SDS011;61017;37.812;-122.286;2023-04-30T01:30:36;2.17;;;1.15;;
72882;SDS011;61017;37.812;-122.286;2023-04-30T01:32:11;3.15;;;1.20;;
72882;SDS011;61017;37.812;-122.286;2023-04-30T01:33:43;5.35;;;1.30;;
72882;SDS011;61017;37.812;-122.286;2023-04-30T01:35:14;2.80;;;1.02;;
72882;SDS011;61017;37.812;-122.286;2023-04-30T01:36:49;3.97;;;1.13;;
72882;SDS011;61017;37.812;-122.286;2023-04-30T01:38:48;4.82;;;1.60;;
72882;SDS011;61017;37.812;-122.286;2023-04-30T01:40:25;2.53;;;1.25;;
72882;SDS011;61017;37.812;-122.286;2023-04-30T01:43:49;3.88;;;1.33;;
72882;SDS011;61017;37.812;-122.286;2023-04-30T01:45:49;5.68;;;1.40;;
72882;SDS011;61017;37.812;-122.286;2023-04-30T01:51:31;3.75;;;1.60;;
72882;SDS011;61017;37.812;-122.286;2023-04-30T01:53:12;4.85;;;1.50;;
72882;SDS011;61017;37.812;-122.286;2023-04-30T01:55:07;8.02;;;1.90;;
72882;SDS011;61017;37.812;-122.286;2023-04-30T01:56:45;3.80;;;1.70;;
72882;SDS011;61017;37.812;-122.286;2023-04-30T01:58:28;4.20;;;1.45;;
72882;SDS011;61017;37.812;-122.286;2023-04-30T02:00:00;4.03;;;1.40;;
72882;SDS011;61017;37.812;-122.286;2023-04-30T02:01:32;4.70;;;1.45;;
72882;SDS011;61017;37.812;-122.286;2023-04-30T02:03:24;3.20;;;1.25;;
72882;SDS011;61017;37.812;-122.286;2023-04-30T02:04:55;4.22;;;1.50;;
72882;SDS011;61017;37.812;-122.286;2023-04-30T02:06:27;5.53;;;1.45;;
72882;SDS011;61017;37.812;-122.286;2023-04-30T02:07:58;6.32;;;1.52;;
72882;SDS011;61017;37.812;-122.286;2023-04-30T02:09:30;4.07;;;1.40;;
72882;SDS011;61017;37.812;-122.286;2023-04-30T02:11:02;5.68;;;1.77;;
72882;SDS011;61017;37.812;-122.286;2023-04-30T02:12:33;4.95;;;1.83;;
72882;SDS011;61017;37.812;-122.286;2023-04-30T02:14:05;3.97;;;1.50;;
72882;SDS011;61017;37.812;-122.286;2023-04-30T02:15:37;4.18;;;1.60;;
72882;SDS011;61017;37.812;-122.286;2023-04-30T02:17:08;4.50;;;1.63;;
72882;SDS011;61017;37.812;-122.286;2023-04-30T02:18:40;3.83;;;1.60;;
72882;SDS011;61017;37.812;-122.286;2023-04-30T02:20:12;5.50;;;1.30;;
72882;SDS011;61017;37.812;-122.286;2023-04-30T02:21:43;4.20;;;1.60;;
72882;SDS011;61017;37.812;-122.286;2023-04-30T02:23:15;3.10;;;1.35;;
72882;SDS011;61017;37.812;-122.286;2023-04-30T02:24:46;4.10;;;1.60;;
72882;SDS011;61017;37.812;-122.286;2023-04-30T02:26:18;4.65;;;1.38;;
72882;SDS011;61017;37.812;-122.286;2023-04-30T02:27:50;4.97;;;1.50;;
72882;SDS011;61017;37.812;-122.286;2023-04-30T02:29:21;6.38;;;1.40;;
72882;SDS011;61017;37.812;-122.286;2023-04-30T02:30:53;5.32;;;1.70;;
72882;SDS011;61017;37.812;-122.286;2023-04-30T02:32:25;3.88;;;1.50;;
72882;SDS011;61017;37.812;-122.286;2023-04-30T02:33:56;3.22;;;1.40;;
72882;SDS011;61017;37.812;-122.286;2023-04-30T02:35:28;5.70;;;1.70;;
72882;SDS011;61017;37.812;-122.286;2023-04-30T02:36:59;3.88;;;1.70;;
72882;SDS011;61017;37.812;-122.286;2023-04-30T02:38:31;3.42;;;1.40;;
72882;SDS011;61017;37.812;-122.286;2023-04-30T02:40:03;3.33;;;1.40;;
72882;SDS011;61017;37.812;-122.286;2023-04-30T02:41:35;4.50;;;1.43;;
72882;SDS011;61017;37.812;-122.286;2023-04-30T02:43:06;8.38;;;1.67;;
72882;SDS011;61017;37.812;-122.286;2023-04-30T02:44:38;3.20;;;1.50;;
72882;SDS011;61017;37.812;-122.286;2023-04-30T02:46:10;5.03;;;1.60;;
72882;SDS011;61017;37.812;-122.286;2023-04-30T02:47:41;3.95;;;1.55;;
72882;SDS011;61017;37.812;-122.286;2023-04-30T02:49:13;4.63;;;1.65;;
72882;SDS011;61017;37.812;-122.286;2023-04-30T02:50:44;3.15;;;1.52;;
72882;SDS011;61017;37.812;-122.286;2023-04-30T02:52:16;4.60;;;1.73;;
72882;SDS011;61017;37.812;-122.286;2023-04-30T02:53:48;5.80;;;1.98;;
72882;SDS011;61017;37.812;-122.286;2023-04-30T02:55:19;4.10;;;1.60;;
72882;SDS011;61017;37.812;-122.286;2023-04-30T02:56:51;4.85;;;1.65;;
72882;SDS011;61017;37.812;-122.286;2023-04-30T02:58:23;3.10;;;1.43;;
72882;SDS011;61017;37.812;-122.286;2023-04-30T02:59:54;3.67;;;1.50;;
72882;SDS011;61017;37.812;-122.286;2023-04-30T03:01:26;4.72;;;1.60;;
72882;SDS011;61017;37.812;-122.286;2023-04-30T03:02:57;3.88;;;1.40;;
72882;SDS011;61017;37.812;-122.286;2023-04-30T03:04:29;3.30;;;1.55;;
72882;SDS011;61017;37.812;-122.286;2023-04-30T03:06:03;3.47;;;1.52;;
72882;SDS011;61017;37.812;-122.286;2023-04-30T03:07:35;5.22;;;1.63;;
72882;SDS011;61017;37.812;-122.286;2023-04-30T03:09:06;4.78;;;1.40;;
72882;SDS011;61017;37.812;-122.286;2023-04-30T03:10:38;5.63;;;2.00;;
72882;SDS011;61017;37.812;-122.286;2023-04-30T03:12:09;3.95;;;1.50;;
72882;SDS011;61017;37.812;-122.286;2023-04-30T03:13:42;3.78;;;1.95;;
72882;SDS011;61017;37.812;-122.286;2023-04-30T03:15:13;4.40;;;1.73;;
72882;SDS011;61017;37.812;-122.286;2023-04-30T03:16:45;4.05;;;1.65;;
72882;SDS011;61017;37.812;-122.286;2023-04-30T03:18:17;3.15;;;1.60;;
72882;SDS011;61017;37.812;-122.286;2023-04-30T03:19:49;4.10;;;1.80;;
72882;SDS011;61017;37.812;-122.286;2023-04-30T03:21:21;4.80;;;2.00;;
72882;SDS011;61017;37.812;-122.286;2023-04-30T03:22:52;3.30;;;1.80;;
72882;SDS011;61017;37.812;-122.286;2023-04-30T03:24:24;3.85;;;1.90;;
72882;SDS011;61017;37.812;-122.286;2023-04-30T03:25:56;3.67;;;1.88;;
72882;SDS011;61017;37.812;-122.286;2023-04-30T03:27:27;5.38;;;1.98;;
72882;SDS011;61017;37.812;-122.286;2023-04-30T03:28:59;5.15;;;1.98;;
72882;SDS011;61017;37.812;-122.286;2023-04-30T03:30:30;4.45;;;1.90;;
72882;SDS011;61017;37.812;-122.286;2023-04-30T03:32:02;4.38;;;2.10;;
72882;SDS011;61017;37.812;-122.286;2023-04-30T03:33:34;4.38;;;2.05;;
72882;SDS011;61017;37.812;-122.286;2023-04-30T03:35:05;4.15;;;1.80;;
72882;SDS011;61017;37.812;-122.286;2023-04-30T03:36:37;4.85;;;2.40;;
72882;SDS011;61017;37.812;-122.286;2023-04-30T03:38:09;4.28;;;2.00;;
72882;SDS011;61017;37.812;-122.286;2023-04-30T03:39:40;3.47;;;2.00;;
72882;SDS011;61017;37.812;-122.286;2023-04-30T03:41:12;3.38;;;2.03;;
72882;SDS011;61017;37.812;-122.286;2023-04-30T03:42:44;3.38;;;2.05;;
72882;SDS011;61017;37.812;-122.286;2023-04-30T03:44:15;3.42;;;1.80;;
72882;SDS011;61017;37.812;-122.286;2023-04-30T03:45:47;3.60;;;1.80;;
72882;SDS011;61017;37.812;-122.286;2023-04-30T03:47:18;3.95;;;2.00;;
72882;SDS011;61017;37.812;-122.286;2023-04-30T03:48:50;5.00;;;2.13;;
72882;SDS011;61017;37.812;-122.286;2023-04-30T03:50:21;3.75;;;2.10;;
72882;SDS011;61017;37.812;-122.286;2023-04-30T03:51:53;3.33;;;2.00;;
72882;SDS011;61017;37.812;-122.286;2023-04-30T03:53:25;5.72;;;2.25;;
72882;SDS011;61017;37.812;-122.286;2023-04-30T03:54:56;3.85;;;2.25;;
72882;SDS011;61017;37.812;-122.286;2023-04-30T03:56:28;3.80;;;2.05;;
72882;SDS011;61017;37.812;-122.286;2023-04-30T03:57:59;4.85;;;2.22;;
72882;SDS011;61017;37.812;-122.286;2023-04-30T03:59:31;4.47;;;2.40;;
72882;SDS011;61017;37.812;-122.286;2023-04-30T04:01:03;4.40;;;2.20;;
72882;SDS011;61017;37.812;-122.286;2023-04-30T04:02:35;4.07;;;2.42;;
72882;SDS011;61017;37.812;-122.286;2023-04-30T04:04:07;3.88;;;2.22;;
72882;SDS011;61017;37.812;-122.286;2023-04-30T04:05:39;3.60;;;2.05;;
72882;SDS011;61017;37.812;-122.286;2023-04-30T04:07:11;3.50;;;2.00;;
72882;SDS011;61017;37.812;-122.286;2023-04-30T04:08:42;4.55;;;2.40;;
72882;SDS011;61017;37.812;-122.286;2023-04-30T04:10:14;3.13;;;2.10;;
72882;SDS011;61017;37.812;-122.286;2023-04-30T04:11:46;5.63;;;2.30;;
72882;SDS011;61017;37.812;-122.286;2023-04-30T04:13:17;3.85;;;2.28;;
72882;SDS011;61017;37.812;-122.286;2023-04-30T04:14:49;4.60;;;2.58;;
72882;SDS011;61017;37.812;-122.286;2023-04-30T04:16:20;5.35;;;2.70;;
72882;SDS011;61017;37.812;-122.286;2023-04-30T04:17:52;4.68;;;2.50;;
72882;SDS011;61017;37.812;-122.286;2023-04-30T04:19:23;6.00;;;2.80;;
72882;SDS011;61017;37.812;-122.286;2023-04-30T04:20:55;4.87;;;2.60;;
72882;SDS011;61017;37.812;-122.286;2023-04-30T04:22:27;5.25;;;2.47;;
72882;SDS011;61017;37.812;-122.286;2023-04-30T04:23:59;4.90;;;2.50;;
72882;SDS011;61017;37.812;-122.286;2023-04-30T04:25:30;3.85;;;2.30;;
72882;SDS011;61017;37.812;-122.286;2023-04-30T04:27:02;3.85;;;2.20;;
72882;SDS011;61017;37.812;-122.286;2023-04-30T04:28:33;4.43;;;2.38;;
72882;SDS011;61017;37.812;-122.286;2023-04-30T04:30:05;5.05;;;2.15;;
72882;SDS011;61017;37.812;-122.286;2023-04-30T04:31:37;4.32;;;2.35;;
72882;SDS011;61017;37.812;-122.286;2023-04-30T04:33:09;3.47;;;2.30;;
72882;SDS011;61017;37.812;-122.286;2023-04-30T04:34:40;3.72;;;2.40;;
72882;SDS011;61017;37.812;-122.286;2023-04-30T04:36:12;3.33;;;2.20;;
72882;SDS011;61017;37.812;-122.286;2023-04-30T04:37:43;4.43;;;2.10;;
72882;SDS011;61017;37.812;-122.286;2023-04-30T04:39:15;4.63;;;2.40;;
72882;SDS011;61017;37.812;-122.286;2023-04-30T04:40:53;4.35;;;2.47;;
72882;SDS011;61017;37.812;-122.286;2023-04-30T04:42:26;5.22;;;2.55;;
72882;SDS011;61017;37.812;-122.286;2023-04-30T04:43:58;4.40;;;2.58;;
72882;SDS011;61017;37.812;-122.286;2023-04-30T04:45:30;5.00;;;2.37;;
72882;SDS011;61017;37.812;-122.286;2023-04-30T04:47:01;4.88;;;2.53;;
72882;SDS011;61017;37.812;-122.286;2023-04-30T04:48:33;4.47;;;2.33;;
72882;SDS011;61017;37.812;-122.286;2023-04-30T04:50:05;4.68;;;2.58;;
72882;SDS011;61017;37.812;-122.286;2023-04-30T04:51:37;4.32;;;2.70;;
72882;SDS011;61017;37.812;-122.286;2023-04-30T04:53:08;3.63;;;2.60;;
72882;SDS011;61017;37.812;-122.286;2023-04-30T04:54:40;4.13;;;2.50;;
72882;SDS011;61017;37.812;-122.286;2023-04-30T04:56:12;6.50;;;2.55;;
72882;SDS011;61017;37.812;-122.286;2023-04-30T04:57:43;4.05;;;2.53;;
72882;SDS011;61017;37.812;-122.286;2023-04-30T04:59:15;6.05;;;2.50;;
72882;SDS011;61017;37.812;-122.286;2023-04-30T05:00:47;3.88;;;2.40;;
72882;SDS011;61017;37.812;-122.286;2023-04-30T05:02:19;3.30;;;2.40;;
72882;SDS011;61017;37.812;-122.286;2023-04-30T05:03:50;4.43;;;2.47;;
72882;SDS011;61017;37.812;-122.286;2023-04-30T05:05:22;3.63;;;2.20;;
72882;SDS011;61017;37.812;-122.286;2023-04-30T05:06:53;4.80;;;2.53;;
72882;SDS011;61017;37.812;-122.286;2023-04-30T05:08:25;3.58;;;2.40;;
72882;SDS011;61017;37.812;-122.286;2023-04-30T05:09:57;4.57;;;2.20;;
72882;SDS011;61017;37.812;-122.286;2023-04-30T05:11:28;5.75;;;2.50;;
72882;SDS011;61017;37.812;-122.286;2023-04-30T05:13:00;3.53;;;2.50;;
72882;SDS011;61017;37.812;-122.286;2023-04-30T05:14:31;4.47;;;2.50;;
72882;SDS011;61017;37.812;-122.286;2023-04-30T05:16:03;3.78;;;2.53;;
72882;SDS011;61017;37.812;-122.286;2023-04-30T05:17:37;4.25;;;2.67;;
72882;SDS011;61017;37.812;-122.286;2023-04-30T05:19:09;5.03;;;2.72;;
72882;SDS011;61017;37.812;-122.286;2023-04-30T05:20:40;4.63;;;2.53;;
72882;SDS011;61017;37.812;-122.286;2023-04-30T05:22:12;4.75;;;2.47;;
72882;SDS011;61017;37.812;-122.286;2023-04-30T05:23:44;4.43;;;2.67;;
72882;SDS011;61017;37.812;-122.286;2023-04-30T05:25:16;5.35;;;2.92;;
72882;SDS011;61017;37.812;-122.286;2023-04-30T05:26:48;6.13;;;2.53;;
72882;SDS011;61017;37.812;-122.286;2023-04-30T05:28:19;5.05;;;2.85;;
72882;SDS011;61017;37.812;-122.286;2023-04-30T05:29:51;5.80;;;2.63;;
72882;SDS011;61017;37.812;-122.286;2023-04-30T05:31:26;3.30;;;2.40;;
72882;SDS011;61017;37.812;-122.286;2023-04-30T05:32:57;3.50;;;2.33;;
72882;SDS011;61017;37.812;-122.286;2023-04-30T05:34:29;5.03;;;2.58;;
72882;SDS011;61017;37.812;-122.286;2023-04-30T05:36:01;4.28;;;2.60;;
72882;SDS011;61017;37.812;-122.286;2023-04-30T05:37:33;5.88;;;2.50;;
72882;SDS011;61017;37.812;-122.286;2023-04-30T05:39:05;4.85;;;2.72;;
72882;SDS011;61017;37.812;-122.286;2023-04-30T05:40:36;4.65;;;2.60;;
72882;SDS011;61017;37.812;-122.286;2023-04-30T05:42:28;5.35;;;2.92;;
72882;SDS011;61017;37.812;-122.286;2023-04-30T05:44:00;4.07;;;2.45;;
72882;SDS011;61017;37.812;-122.286;2023-04-30T05:45:32;4.50;;;2.60;;
72882;SDS011;61017;37.812;-122.286;2023-04-30T05:47:03;4.57;;;2.53;;
72882;SDS011;61017;37.812;-122.286;2023-04-30T05:48:35;4.07;;;2.53;;
72882;SDS011;61017;37.812;-122.286;2023-04-30T05:50:08;5.90;;;2.60;;
72882;SDS011;61017;37.812;-122.286;2023-04-30T05:53:12;5.32;;;2.63;;
72882;SDS011;61017;37.812;-122.286;2023-04-30T05:54:46;5.22;;;2.40;;
72882;SDS011;61017;37.812;-122.286;2023-04-30T05:56:18;4.38;;;2.45;;
72882;SDS011;61017;37.812;-122.286;2023-04-30T05:57:50;5.05;;;2.90;;
72882;SDS011;61017;37.812;-122.286;2023-04-30T05:59:21;5.53;;;2.70;;
72882;SDS011;61017;37.812;-122.286;2023-04-30T06:00:53;4.45;;;2.50;;
72882;SDS011;61017;37.812;-122.286;2023-04-30T06:02:24;4.15;;;2.53;;
72882;SDS011;61017;37.812;-122.286;2023-04-30T06:03:56;4.63;;;2.60;;
72882;SDS011;61017;37.812;-122.286;2023-04-30T06:05:28;5.38;;;2.80;;
72882;SDS011;61017;37.812;-122.286;2023-04-30T06:06:59;5.63;;;2.75;;
72882;SDS011;61017;37.812;-122.286;2023-04-30T06:08:31;5.07;;;2.50;;
72882;SDS011;61017;37.812;-122.286;2023-04-30T06:10:02;5.78;;;2.80;;
72882;SDS011;61017;37.812;-122.286;2023-04-30T06:11:34;5.53;;;2.78;;
72882;SDS011;61017;37.812;-122.286;2023-04-30T06:13:06;5.15;;;2.65;;
72882;SDS011;61017;37.812;-122.286;2023-04-30T06:14:38;5.60;;;2.60;;
72882;SDS011;61017;37.812;-122.286;2023-04-30T06:16:10;4.70;;;2.70;;
72882;SDS011;61017;37.812;-122.286;2023-04-30T06:17:41;4.88;;;2.67;;
72882;SDS011;61017;37.812;-122.286;2023-04-30T06:19:13;4.60;;;2.70;;
72882;SDS011;61017;37.812;-122.286;2023-04-30T06:20:44;4.40;;;2.72;;
72882;SDS011;61017;37.812;-122.286;2023-04-30T06:22:16;5.68;;;2.63;;
72882;SDS011;61017;37.812;-122.286;2023-04-30T06:23:47;6.18;;;2.83;;
72882;SDS011;61017;37.812;-122.286;2023-04-30T06:25:19;5.05;;;2.40;;
72882;SDS011;61017;37.812;-122.286;2023-04-30T06:26:50;5.25;;;2.58;;
72882;SDS011;61017;37.812;-122.286;2023-04-30T06:28:22;4.32;;;2.50;;
72882;SDS011;61017;37.812;-122.286;2023-04-30T06:29:54;5.00;;;2.85;;
72882;SDS011;61017;37.812;-122.286;2023-04-30T06:31:25;4.65;;;2.95;;
72882;SDS011;61017;37.812;-122.286;2023-04-30T06:32:57;5.60;;;2.70;;
72882;SDS011;61017;37.812;-122.286;2023-04-30T06:34:28;4.55;;;2.65;;
72882;SDS011;61017;37.812;-122.286;2023-04-30T06:36:00;3.67;;;2.58;;
72882;SDS011;61017;37.812;-122.286;2023-04-30T06:37:31;5.00;;;2.50;;
72882;SDS011;61017;37.812;-122.286;2023-04-30T06:39:03;5.88;;;3.00;;
72882;SDS011;61017;37.812;-122.286;2023-04-30T06:40:35;4.43;;;2.80;;
72882;SDS011;61017;37.812;-122.286;2023-04-30T06:42:06;4.75;;;2.90;;
72882;SDS011;61017;37.812;-122.286;2023-04-30T06:43:38;6.32;;;3.05;;
72882;SDS011;61017;37.812;-122.286;2023-04-30T06:45:10;5.43;;;3.20;;
72882;SDS011;61017;37.812;-122.286;2023-04-30T06:46:41;7.35;;;3.10;;
72882;SDS011;61017;37.812;-122.286;2023-04-30T06:48:13;5.97;;;2.78;;
72882;SDS011;61017;37.812;-122.286;2023-04-30T06:49:45;4.93;;;3.15;;
72882;SDS011;61017;37.812;-122.286;2023-04-30T06:51:16;4.93;;;2.58;;
72882;SDS011;61017;37.812;-122.286;2023-04-30T06:52:48;4.88;;;2.90;;
72882;SDS011;61017;37.812;-122.286;2023-04-30T06:54:19;6.93;;;2.90;;
72882;SDS011;61017;37.812;-122.286;2023-04-30T06:55:51;5.03;;;2.90;;
72882;SDS011;61017;37.812;-122.286;2023-04-30T06:57:23;4.10;;;2.80;;
72882;SDS011;61017;37.812;-122.286;2023-04-30T06:58:54;4.43;;;3.05;;
72882;SDS011;61017;37.812;-122.286;2023-04-30T07:00:26;4.88;;;2.80;;
72882;SDS011;61017;37.812;-122.286;2023-04-30T07:01:57;6.20;;;2.97;;
72882;SDS011;61017;37.812;-122.286;2023-04-30T07:03:29;3.88;;;2.60;;
72882;SDS011;61017;37.812;-122.286;2023-04-30T07:05:00;6.10;;;2.80;;
72882;SDS011;61017;37.812;-122.286;2023-04-30T07:06:32;5.75;;;2.85;;
72882;SDS011;61017;37.812;-122.286;2023-04-30T07:08:04;6.63;;;2.90;;
72882;SDS011;61017;37.812;-122.286;2023-04-30T07:09:36;4.93;;;2.97;;
72882;SDS011;61017;37.812;-122.286;2023-04-30T07:11:08;4.65;;;2.80;;
72882;SDS011;61017;37.812;-122.286;2023-04-30T07:12:39;4.63;;;3.03;;
72882;SDS011;61017;37.812;-122.286;2023-04-30T07:14:11;6.55;;;3.15;;
72882;SDS011;61017;37.812;-122.286;2023-04-30T07:15:43;6.50;;;3.10;;
72882;SDS011;61017;37.812;-122.286;2023-04-30T07:17:15;6.85;;;2.80;;
72882;SDS011;61017;37.812;-122.286;2023-04-30T07:18:46;5.45;;;2.75;;
72882;SDS011;61017;37.812;-122.286;2023-04-30T07:20:18;5.85;;;2.90;;
72882;SDS011;61017;37.812;-122.286;2023-04-30T07:21:49;4.63;;;2.97;;
72882;SDS011;61017;37.812;-122.286;2023-04-30T07:23:21;4.88;;;2.97;;
72882;SDS011;61017;37.812;-122.286;2023-04-30T07:24:53;5.07;;;2.65;;
72882;SDS011;61017;37.812;-122.286;2023-04-30T07:26:24;4.63;;;2.67;;
72882;SDS011;61017;37.812;-122.286;2023-04-30T07:27:56;5.50;;;2.97;;
72882;SDS011;61017;37.812;-122.286;2023-04-30T07:29:28;6.45;;;2.80;;
72882;SDS011;61017;37.812;-122.286;2023-04-30T07:30:59;4.30;;;2.78;;
72882;SDS011;61017;37.812;-122.286;2023-04-30T07:32:31;4.78;;;2.60;;
72882;SDS011;61017;37.812;-122.286;2023-04-30T07:34:04;3.97;;;2.65;;
72882;SDS011;61017;37.812;-122.286;2023-04-30T07:35:35;5.85;;;2.90;;
72882;SDS011;61017;37.812;-122.286;2023-04-30T07:37:07;5.43;;;2.70;;
72882;SDS011;61017;37.812;-122.286;2023-04-30T07:38:39;5.90;;;2.70;;
72882;SDS011;61017;37.812;-122.286;2023-04-30T07:40:10;5.22;;;3.00;;
72882;SDS011;61017;37.812;-122.286;2023-04-30T07:41:42;5.70;;;2.78;;
72882;SDS011;61017;37.812;-122.286;2023-04-30T07:43:14;6.50;;;2.78;;
72882;SDS011;61017;37.812;-122.286;2023-04-30T07:44:45;6.47;;;2.70;;
72882;SDS011;61017;37.812;-122.286;2023-04-30T07:46:17;6.13;;;2.85;;
72882;SDS011;61017;37.812;-122.286;2023-04-30T07:47:48;6.15;;;2.65;;
72882;SDS011;61017;37.812;-122.286;2023-04-30T07:49:20;5.05;;;2.65;;
72882;SDS011;61017;37.812;-122.286;2023-04-30T07:50:52;5.80;;;2.80;;
72882;SDS011;61017;37.812;-122.286;2023-04-30T07:52:24;6.00;;;2.85;;
72882;SDS011;61017;37.812;-122.286;2023-04-30T07:53:55;6.25;;;2.90;;
72882;SDS011;61017;37.812;-122.286;2023-04-30T07:55:27;6.25;;;3.10;;
72882;SDS011;61017;37.812;-122.286;2023-04-30T07:56:58;6.47;;;3.10;;
72882;SDS011;61017;37.812;-122.286;2023-04-30T07:58:30;6.28;;;2.88;;
72882;SDS011;61017;37.812;-122.286;2023-04-30T08:00:02;4.63;;;2.55;;
72882;SDS011;61017;37.812;-122.286;2023-04-30T08:01:33;5.68;;;2.90;;
72882;SDS011;61017;37.812;-122.286;2023-04-30T08:03:05;6.60;;;3.28;;
72882;SDS011;61017;37.812;-122.286;2023-04-30T08:04:37;7.35;;;3.20;;
72882;SDS011;61017;37.812;-122.286;2023-04-30T08:06:09;5.45;;;2.83;;
72882;SDS011;61017;37.812;-122.286;2023-04-30T08:07:40;5.68;;;2.88;;
72882;SDS011;61017;37.812;-122.286;2023-04-30T08:09:12;4.97;;;2.95;;
72882;SDS011;61017;37.812;-122.286;2023-04-30T08:10:43;7.63;;;3.00;;
72882;SDS011;61017;37.812;-122.286;2023-04-30T08:12:15;5.80;;;2.70;;
72882;SDS011;61017;37.812;-122.286;2023-04-30T08:13:47;6.15;;;2.90;;
72882;SDS011;61017;37.812;-122.286;2023-04-30T08:15:18;5.97;;;2.70;;
72882;SDS011;61017;37.812;-122.286;2023-04-30T08:16:50;5.10;;;2.70;;
72882;SDS011;61017;37.812;-122.286;2023-04-30T08:18:21;4.68;;;2.80;;
72882;SDS011;61017;37.812;-122.286;2023-04-30T08:19:53;5.53;;;2.80;;
72882;SDS011;61017;37.812;-122.286;2023-04-30T08:21:25;5.55;;;2.80;;
72882;SDS011;61017;37.812;-122.286;2023-04-30T08:23:00;4.70;;;2.75;;
72882;SDS011;61017;37.812;-122.286;2023-04-30T08:24:32;5.15;;;2.63;;
72882;SDS011;61017;37.812;-122.286;2023-04-30T08:26:03;6.88;;;3.10;;
72882;SDS011;61017;37.812;-122.286;2023-04-30T08:27:35;5.68;;;2.92;;
72882;SDS011;61017;37.812;-122.286;2023-04-30T08:29:06;6.80;;;2.90;;
72882;SDS011;61017;37.812;-122.286;2023-04-30T08:30:38;6.50;;;3.10;;
72882;SDS011;61017;37.812;-122.286;2023-04-30T08:32:10;6.50;;;2.90;;
72882;SDS011;61017;37.812;-122.286;2023-04-30T08:33:41;5.75;;;2.63;;
72882;SDS011;61017;37.812;-122.286;2023-04-30T08:35:13;7.07;;;3.08;;
72882;SDS011;61017;37.812;-122.286;2023-04-30T08:36:44;6.93;;;3.00;;
72882;SDS011;61017;37.812;-122.286;2023-04-30T08:38:16;6.63;;;3.17;;
72882;SDS011;61017;37.812;-122.286;2023-04-30T08:39:48;6.60;;;2.78;;
72882;SDS011;61017;37.812;-122.286;2023-04-30T08:41:19;7.45;;;2.78;;
72882;SDS011;61017;37.812;-122.286;2023-04-30T08:42:59;7.20;;;3.10;;
72882;SDS011;61017;37.812;-122.286;2023-04-30T08:44:41;5.65;;;2.90;;
72882;SDS011;61017;37.812;-122.286;2023-04-30T08:46:13;5.57;;;2.70;;
72882;SDS011;61017;37.812;-122.286;2023-04-30T08:47:45;5.97;;;2.87;;
72882;SDS011;61017;37.812;-122.286;2023-04-30T08:49:18;6.40;;;2.53;;
72882;SDS011;61017;37.812;-122.286;2023-04-30T08:52:24;8.25;;;3.25;;
72882;SDS011;61017;37.812;-122.286;2023-04-30T08:53:58;7.03;;;2.95;;
72882;SDS011;61017;37.812;-122.286;2023-04-30T08:55:29;6.68;;;2.90;;
72882;SDS011;61017;37.812;-122.286;2023-04-30T08:57:04;8.80;;;3.10;;
72882;SDS011;61017;37.812;-122.286;2023-04-30T08:58:35;7.22;;;2.67;;
72882;SDS011;61017;37.812;-122.286;2023-04-30T09:00:07;8.13;;;3.00;;
72882;SDS011;61017;37.812;-122.286;2023-04-30T09:01:39;9.60;;;3.22;;
72882;SDS011;61017;37.812;-122.286;2023-04-30T09:03:11;7.65;;;3.10;;
72882;SDS011;61017;37.812;-122.286;2023-04-30T09:04:42;7.68;;;3.15;;
72882;SDS011;61017;37.812;-122.286;2023-04-30T09:06:15;5.97;;;2.80;;
72882;SDS011;61017;37.812;-122.286;2023-04-30T09:07:47;6.55;;;3.05;;
72882;SDS011;61017;37.812;-122.286;2023-04-30T09:09:18;6.70;;;2.88;;